Time;durP1;ratioP1;P1;durP2;ratioP2;P2;SDS_P1;SDS_P2;PMS_P1;PMS_P2;Temp;Humidity;BMP_temperature;BMP_pressure;BME280_temperature;BME280_humidity;BME280_pressure;Samples;Min_cycle;Max_cycle;Signal;HPM_P1;HPM_P2
2023/09/02 00:00:10;;;;;;;7.63;5.47;;;14.20;99.90;;;;;;5023337;28;20534;-52
2023/09/02 00:02:36;;;;;;;5.55;4.63;;;14.10;99.90;;;;;;5023027;28;20124;-49
2023/09/02 00:05:01;;;;;;;5.95;4.38;;;14.10;99.90;;;;;;5021991;28;20108;-51
2023/09/02 00:07:27;;;;;;;8.93;5.30;;;14.10;99.90;;;;;;5023489;28;20054;-50
2023/09/02 00:09:52;;;;;;;6.05;5.20;;;14.10;99.90;;;;;;5027001;28;20447;-52
2023/09/02 00:12:18;;;;;;;6.45;5.18;;;14.10;99.90;;;;;;5009771;28;20037;-51
2023/09/02 00:14:44;;;;;;;8.52;5.63;;;14.10;99.90;;;;;;5026228;28;20045;-53
2023/09/02 00:17:10;;;;;;;7.80;6.10;;;14.00;99.90;;;;;;5026351;28;20103;-52
2023/09/02 00:19:37;;;;;;;7.80;6.38;;;14.00;99.90;;;;;;5028439;28;20120;-50
2023/09/02 00:22:03;;;;;;;10.23;6.30;;;14.00;99.90;;;;;;5046358;28;20471;-48
2023/09/02 00:24:28;;;;;;;7.00;6.13;;;14.00;99.90;;;;;;5027912;28;20041;-52
2023/09/02 00:26:54;;;;;;;7.88;5.90;;;14.00;99.90;;;;;;5046509;28;20522;-48
2023/09/02 00:29:20;;;;;;;9.98;6.72;;;14.20;99.90;;;;;;5046389;28;20083;-47
2023/09/02 00:31:45;;;;;;;7.72;6.60;;;14.00;99.90;;;;;;5046132;28;20098;-53
2023/09/02 00:34:11;;;;;;;9.50;7.05;;;13.90;99.90;;;;;;5044931;28;20040;-50
2023/09/02 00:36:36;;;;;;;7.85;6.45;;;13.90;99.90;;;;;;5046608;28;20407;-50
2023/09/02 00:39:02;;;;;;;9.15;6.88;;;13.90;99.90;;;;;;5027933;28;20028;-49
2023/09/02 00:41:57;;;;;;;8.48;6.68;;;13.90;99.90;;;;;;5045295;28;20075;-52
2023/09/02 00:44:23;;;;;;;7.53;6.45;;;13.80;99.90;;;;;;5028578;28;20057;-49
2023/09/02 00:46:49;;;;;;;8.50;6.57;;;13.80;99.90;;;;;;5045733;28;20041;-53
2023/09/02 00:49:15;;;;;;;9.40;6.38;;;13.90;99.90;;;;;;5045442;28;20048;-50
2023/09/02 00:51:40;;;;;;;8.18;6.15;;;13.80;99.90;;;;;;5045441;28;20091;-49
2023/09/02 00:54:06;;;;;;;7.70;6.43;;;13.80;99.90;;;;;;5044579;28;20073;-48
2023/09/02 00:56:32;;;;;;;9.65;7.07;;;13.80;99.90;;;;;;5039802;28;20045;-49
2023/09/02 00:59:03;;;;;;;9.73;6.57;;;13.80;99.90;;;;;;5026539;28;20460;-49
2023/09/02 01:01:31;;;;;;;8.95;7.03;;;13.80;99.90;;;;;;5025184;28;20072;-49
2023/09/02 01:03:57;;;;;;;8.35;6.68;;;13.80;99.90;;;;;;5025279;28;20520;-50
2023/09/02 01:06:23;;;;;;;8.35;6.30;;;13.70;99.90;;;;;;5025073;28;20053;-49
2023/09/02 01:08:49;;;;;;;8.52;6.90;;;13.80;99.90;;;;;;5025921;28;20056;-49
2023/09/02 01:11:14;;;;;;;9.57;7.03;;;13.80;99.90;;;;;;5024538;28;20041;-50
2023/09/02 01:13:40;;;;;;;9.55;6.50;;;13.80;99.90;;;;;;4994869;28;20052;-48
2023/09/02 01:16:06;;;;;;;10.15;7.15;;;13.80;99.90;;;;;;5025000;28;20041;-52
2023/09/02 01:18:33;;;;;;;8.82;7.45;;;13.80;99.90;;;;;;5023545;28;20121;-50
2023/09/02 01:21:34;;;;;;;11.15;8.02;;;13.80;99.90;;;;;;5025320;28;20041;-51
2023/09/02 01:24:37;;;;;;;9.20;7.80;;;13.80;99.90;;;;;;5023739;28;20053;-50
2023/09/02 01:27:18;;;;;;;9.05;7.30;;;13.70;99.90;;;;;;5027085;28;20057;-48
2023/09/02 01:29:55;;;;;;;9.32;7.82;;;13.70;99.90;;;;;;5040717;28;20123;-48
2023/09/02 01:32:22;;;;;;;11.25;8.45;;;13.90;99.90;;;;;;5045728;28;20060;-51
2023/09/02 01:34:48;;;;;;;12.23;8.85;;;13.60;99.90;;;;;;5042881;28;20128;-49
2023/09/02 01:37:17;;;;;;;12.95;9.95;;;13.70;99.90;;;;;;5045189;28;20045;-48
2023/09/02 01:39:46;;;;;;;10.45;9.35;;;13.70;99.90;;;;;;5044594;28;20554;-51
2023/09/02 01:42:13;;;;;;;12.38;10.32;;;13.60;99.90;;;;;;5043409;28;20041;-51
2023/09/02 01:44:40;;;;;;;12.25;9.57;;;13.60;99.90;;;;;;5044869;28;20037;-50
2023/09/02 01:47:06;;;;;;;13.07;8.63;;;13.60;99.90;;;;;;5044642;28;20047;-50
2023/09/02 01:49:32;;;;;;;10.93;8.70;;;13.60;99.90;;;;;;5042948;28;20037;-53
2023/09/02 01:51:59;;;;;;;11.20;8.95;;;13.50;99.90;;;;;;5044782;28;20395;-50
2023/09/02 01:54:25;;;;;;;11.45;8.75;;;13.50;99.90;;;;;;5044702;28;20045;-49
2023/09/02 01:56:51;;;;;;;12.05;8.25;;;13.40;99.90;;;;;;5036959;28;20385;-51
2023/09/02 01:59:17;;;;;;;10.77;8.80;;;13.40;99.90;;;;;;5023676;28;20052;-48
2023/09/02 02:01:42;;;;;;;11.10;9.02;;;13.40;99.90;;;;;;5024525;28;20049;-47
2023/09/02 02:04:20;;;;;;;10.38;9.05;;;13.40;99.90;;;;;;5023407;28;20802;-51
2023/09/02 02:06:46;;;;;;;10.07;8.25;;;13.40;99.90;;;;;;5023505;28;20057;-52
2023/09/02 02:09:17;;;;;;;11.23;9.93;;;13.40;99.90;;;;;;5024192;28;20092;-50
2023/09/02 02:11:43;;;;;;;12.18;9.13;;;13.40;99.90;;;;;;5024780;28;20053;-48
2023/09/02 02:14:09;;;;;;;10.02;8.38;;;13.40;99.90;;;;;;5022047;28;20037;-51
2023/09/02 02:16:34;;;;;;;11.60;9.20;;;13.40;99.90;;;;;;5006757;28;20608;-48
2023/09/02 02:19:00;;;;;;;10.93;9.02;;;13.40;99.90;;;;;;5041578;28;20215;-48
2023/09/02 02:21:27;;;;;;;11.43;8.65;;;13.30;99.90;;;;;;5044028;28;20655;-47
2023/09/02 02:23:53;;;;;;;10.70;9.00;;;13.30;99.90;;;;;;5044215;28;20667;-52
2023/09/02 02:26:19;;;;;;;11.05;8.13;;;13.30;99.90;;;;;;5043510;28;20083;-50
2023/09/02 02:28:44;;;;;;;10.18;8.68;;;13.30;99.90;;;;;;5044206;28;20037;-50
2023/09/02 02:31:10;;;;;;;10.77;9.02;;;13.20;99.90;;;;;;5042979;28;20037;-51
2023/09/02 02:33:37;;;;;;;9.75;8.60;;;13.20;99.90;;;;;;5043253;28;20450;-48
2023/09/02 02:36:03;;;;;;;9.70;8.25;;;13.20;99.90;;;;;;5043471;28;20053;-51
2023/09/02 02:38:29;;;;;;;10.18;8.38;;;13.20;99.90;;;;;;5025837;28;20080;-47
2023/09/02 02:40:54;;;;;;;10.35;8.63;;;13.10;99.90;;;;;;5043887;28;20103;-51
2023/09/02 02:43:26;;;;;;;11.38;9.23;;;13.10;99.90;;;;;;5043704;28;20139;-50
2023/09/02 02:45:53;;;;;;;17.77;9.57;;;13.10;99.90;;;;;;5044322;28;20049;-49
2023/09/02 02:48:25;;;;;;;19.83;10.95;;;13.10;99.90;;;;;;5041955;28;20049;-52
2023/09/02 02:50:51;;;;;;;13.40;10.38;;;13.20;99.90;;;;;;5043937;28;20117;-51
2023/09/02 02:53:16;;;;;;;12.10;9.95;;;13.10;99.90;;;;;;5043804;28;20376;-51
2023/09/02 02:55:42;;;;;;;14.15;11.05;;;13.10;99.90;;;;;;5036253;28;20107;-48
2023/09/02 02:58:08;;;;;;;13.05;11.30;;;13.10;99.90;;;;;;5031806;28;20125;-49
2023/09/02 03:00:33;;;;;;;12.55;11.23;;;13.30;99.90;;;;;;5006093;28;20053;-52
2023/09/02 03:02:59;;;;;;;14.73;11.02;;;13.00;99.90;;;;;;5022921;28;20044;-51
2023/09/02 03:05:24;;;;;;;16.73;11.82;;;13.00;99.90;;;;;;5023346;28;20088;-51
2023/09/02 03:07:50;;;;;;;13.77;11.90;;;13.00;99.90;;;;;;5023504;28;20054;-50
2023/09/02 03:10:16;;;;;;;14.48;11.15;;;13.10;99.90;;;;;;5023917;28;20045;-50
2023/09/02 03:12:41;;;;;;;13.45;11.52;;;13.00;99.90;;;;;;5022334;28;20045;-48
2023/09/02 03:15:07;;;;;;;15.45;11.88;;;13.00;99.90;;;;;;5023456;28;20033;-51
2023/09/02 03:17:33;;;;;;;15.40;11.30;;;12.90;99.90;;;;;;5023123;28;20071;-48
2023/09/02 03:19:59;;;;;;;14.00;11.75;;;12.80;99.90;;;;;;5005132;28;20050;-50
2023/09/02 03:22:24;;;;;;;16.17;12.15;;;12.80;99.90;;;;;;5022698;28;20119;-50
2023/09/02 03:24:53;;;;;;;16.35;13.75;;;12.90;99.90;;;;;;5023541;28;20052;-48
2023/09/02 03:27:19;;;;;;;14.70;13.20;;;13.00;99.90;;;;;;5022978;28;20054;-50
2023/09/02 03:29:49;;;;;;;15.43;12.88;;;12.90;99.90;;;;;;5023204;28;20057;-49
2023/09/02 03:32:15;;;;;;;14.18;12.63;;;12.90;99.90;;;;;;5005692;28;20107;-50
2023/09/02 03:34:40;;;;;;;16.08;12.65;;;12.90;99.90;;;;;;5022427;28;20033;-49
2023/09/02 03:37:06;;;;;;;16.83;13.50;;;13.30;99.90;;;;;;5023493;28;20088;-51
2023/09/02 03:39:33;;;;;;;15.25;12.25;;;12.90;99.90;;;;;;5022756;28;20534;-52
2023/09/02 03:41:59;;;;;;;14.40;12.43;;;13.00;99.90;;;;;;5023923;28;20140;-49
2023/09/02 03:44:25;;;;;;;15.70;12.60;;;13.10;99.90;;;;;;5027274;28;20060;-51
2023/09/02 03:46:51;;;;;;;13.65;11.00;;;13.00;99.90;;;;;;5026404;28;20357;-51
2023/09/02 03:49:17;;;;;;;16.30;13.20;;;13.00;99.90;;;;;;5026676;28;20046;-50
2023/09/02 03:51:43;;;;;;;16.23;13.73;;;13.00;99.90;;;;;;5026704;28;20041;-52
2023/09/02 03:54:09;;;;;;;19.73;14.80;;;12.90;99.90;;;;;;5009338;28;20419;-50
2023/09/02 03:56:36;;;;;;;18.17;13.93;;;12.80;99.90;;;;;;5036001;28;20045;-51
2023/09/02 03:59:03;;;;;;;18.52;13.73;;;13.00;99.90;;;;;;5028182;28;20385;-50
2023/09/02 04:01:28;;;;;;;20.58;13.60;;;12.80;99.90;;;;;;5027599;28;20042;-52
2023/09/02 04:03:54;;;;;;;18.85;14.27;;;12.80;99.90;;;;;;5025141;28;20090;-50
2023/09/02 04:06:19;;;;;;;17.45;14.13;;;12.80;99.90;;;;;;5009213;28;20100;-52
2023/09/02 04:08:45;;;;;;;19.17;14.65;;;12.80;99.90;;;;;;5026699;28;20687;-49
2023/09/02 04:11:11;;;;;;;20.38;14.32;;;12.80;99.90;;;;;;5026734;28;20037;-50
2023/09/02 04:13:36;;;;;;;20.80;15.73;;;12.90;99.90;;;;;;5026222;28;20171;-46
2023/09/02 04:16:02;;;;;;;18.70;15.00;;;12.90;99.90;;;;;;5026876;28;20038;-51
2023/09/02 04:18:30;;;;;;;24.25;15.90;;;12.90;99.90;;;;;;5025882;28;20128;-53
2023/09/02 04:20:55;;;;;;;22.63;16.17;;;12.90;99.90;;;;;;5025733;28;20045;-47
2023/09/02 04:23:22;;;;;;;19.65;15.27;;;12.90;99.90;;;;;;5026973;28;20060;-51
2023/09/02 04:25:51;;;;;;;22.80;15.43;;;12.90;99.90;;;;;;5026294;28;20060;-47
2023/09/02 04:28:18;;;;;;;18.50;15.77;;;13.00;99.90;;;;;;5026043;28;20045;-47
2023/09/02 04:30:45;;;;;;;19.63;15.57;;;13.20;99.90;;;;;;5026122;28;20053;-50
2023/09/02 04:33:12;;;;;;;19.98;15.98;;;13.00;99.90;;;;;;5007661;28;20377;-47
2023/09/02 04:35:43;;;;;;;20.77;16.85;;;13.00;99.90;;;;;;5026014;28;20103;-51
2023/09/02 04:38:10;;;;;;;20.73;16.98;;;13.10;99.90;;;;;;5026603;28;20163;-50
2023/09/02 04:40:40;;;;;;;22.88;17.33;;;13.00;99.90;;;;;;5026300;28;20052;-47
2023/09/02 04:43:07;;;;;;;22.23;16.77;;;13.00;99.90;;;;;;5025690;28;20083;-50
2023/09/02 04:45:36;;;;;;;20.65;16.75;;;13.10;99.90;;;;;;5025042;28;20053;-48
2023/09/02 04:48:03;;;;;;;20.45;16.75;;;13.00;99.90;;;;;;5025441;28;20180;-46
2023/09/02 04:50:32;;;;;;;23.23;16.85;;;13.00;99.90;;;;;;5026320;28;20108;-49
2023/09/02 04:52:59;;;;;;;19.30;15.88;;;13.00;99.90;;;;;;5025380;28;20069;-46
2023/09/02 04:55:25;;;;;;;22.58;16.33;;;13.00;99.90;;;;;;5027571;28;20488;-48
2023/09/02 04:57:56;;;;;;;18.95;16.23;;;13.00;99.90;;;;;;5034691;28;20071;-51
2023/09/02 05:00:27;;;;;;;19.67;16.92;;;13.10;99.90;;;;;;5024810;28;20534;-53
2023/09/02 05:02:53;;;;;;;20.20;16.63;;;13.00;99.90;;;;;;5024717;28;20053;-50
2023/09/02 05:05:21;;;;;;;20.02;17.52;;;13.00;99.90;;;;;;5025478;28;20045;-49
2023/09/02 05:07:47;;;;;;;23.33;17.42;;;13.00;99.90;;;;;;5024497;28;20404;-51
2023/09/02 05:10:14;;;;;;;21.83;17.92;;;13.10;99.90;;;;;;5025672;28;20086;-47
2023/09/02 05:12:39;;;;;;;21.70;17.35;;;13.10;99.90;;;;;;5025583;28;20586;-51
2023/09/02 05:15:06;;;;;;;21.35;17.65;;;13.10;99.90;;;;;;5025216;28;20038;-47
2023/09/02 05:17:32;;;;;;;21.48;17.63;;;13.10;99.90;;;;;;5024555;28;20048;-46
2023/09/02 05:20:03;;;;;;;24.23;17.65;;;13.10;99.90;;;;;;5007585;28;20045;-48
2023/09/02 05:22:29;;;;;;;20.52;17.55;;;13.20;99.90;;;;;;5025258;28;20738;-49
2023/09/02 05:24:55;;;;;;;19.33;16.38;;;13.30;99.90;;;;;;5025740;28;20124;-47
2023/09/02 05:27:21;;;;;;;19.85;15.73;;;13.30;99.90;;;;;;5017687;28;20054;-49
2023/09/02 05:29:47;;;;;;;24.65;16.60;;;13.30;99.90;;;;;;5025366;28;20664;-50
2023/09/02 05:32:13;;;;;;;21.65;17.13;;;13.30;99.90;;;;;;5025022;28;20033;-46
2023/09/02 05:34:42;;;;;;;21.50;17.75;;;13.30;99.90;;;;;;5024206;28;20393;-50
2023/09/02 05:37:08;;;;;;;20.23;17.55;;;13.30;99.90;;;;;;5025584;28;20061;-49
2023/09/02 05:39:34;;;;;;;21.42;17.08;;;13.80;99.90;;;;;;5025144;28;20469;-48
2023/09/02 05:41:59;;;;;;;21.73;17.80;;;13.30;99.90;;;;;;5006648;28;20061;-49
2023/09/02 05:44:25;;;;;;;23.08;18.08;;;13.30;99.90;;;;;;5024558;28;20034;-51
2023/09/02 05:46:50;;;;;;;20.50;16.92;;;13.40;99.90;;;;;;5025387;28;20052;-49
2023/09/02 05:49:16;;;;;;;21.15;17.48;;;13.30;99.90;;;;;;5023509;28;20045;-51
2023/09/02 05:51:42;;;;;;;21.40;17.85;;;13.30;99.90;;;;;;5024961;28;20504;-48
2023/09/02 05:54:09;;;;;;;20.10;17.38;;;13.30;99.90;;;;;;5025109;28;20044;-51
2023/09/02 05:56:35;;;;;;;22.02;18.33;;;13.30;99.90;;;;;;5034750;28;20128;-47
2023/09/02 05:59:02;;;;;;;22.38;17.55;;;13.40;99.90;;;;;;5024536;28;20077;-51
2023/09/02 06:01:27;;;;;;;22.25;18.92;;;13.50;99.90;;;;;;5024380;28;20049;-46
2023/09/02 06:03:53;;;;;;;20.75;17.90;;;13.60;99.90;;;;;;5023968;28;20046;-47
2023/09/02 06:06:19;;;;;;;20.63;17.70;;;13.60;99.90;;;;;;5023466;28;20073;-48
2023/09/02 06:08:44;;;;;;;23.45;18.30;;;13.60;99.90;;;;;;5024298;28;20049;-49
2023/09/02 06:11:10;;;;;;;20.55;17.10;;;13.60;99.90;;;;;;5024279;28;20135;-49
2023/09/02 06:13:36;;;;;;;22.08;18.15;;;14.00;99.90;;;;;;5024948;28;20034;-51
2023/09/02 06:16:04;;;;;;;19.98;16.65;;;13.80;99.90;;;;;;5023230;28;20038;-52
2023/09/02 06:18:30;;;;;;;17.23;15.20;;;14.10;99.90;;;;;;5023532;28;20218;-49
2023/09/02 06:20:56;;;;;;;16.38;14.68;;;14.70;99.90;;;;;;5024292;28;20129;-53
2023/09/02 06:23:25;;;;;;;15.48;13.88;;;15.40;99.90;;;;;;5023331;28;20053;-50
2023/09/02 06:25:58;;;;;;;16.10;14.40;;;15.90;99.90;;;;;;5024285;28;20041;-47
2023/09/02 06:28:24;;;;;;;18.35;14.32;;;16.40;99.90;;;;;;5024346;28;20396;-51
2023/09/02 06:30:50;;;;;;;18.05;14.23;;;17.00;99.90;;;;;;5023770;28;20538;-51
2023/09/02 06:33:17;;;;;;;18.10;13.77;;;17.20;99.90;;;;;;5021673;28;20071;-49
2023/09/02 06:35:43;;;;;;;18.67;15.55;;;17.50;99.90;;;;;;5024106;28;20057;-50
2023/09/02 06:38:09;;;;;;;17.25;15.23;;;17.80;99.90;;;;;;5023637;28;20600;-49
2023/09/02 06:40:34;;;;;;;18.45;14.70;;;17.90;99.90;;;;;;5023529;28;20049;-49
2023/09/02 06:43:00;;;;;;;17.67;15.68;;;18.00;99.90;;;;;;5023622;28;20048;-50
2023/09/02 06:45:26;;;;;;;17.30;15.18;;;18.20;99.90;;;;;;5024005;28;20037;-53
2023/09/02 06:47:51;;;;;;;17.00;14.75;;;18.40;99.90;;;;;;5022555;28;20560;-49
2023/09/02 06:50:17;;;;;;;17.77;15.57;;;18.40;99.90;;;;;;5023994;28;20045;-49
2023/09/02 06:52:43;;;;;;;18.48;15.48;;;18.60;99.90;;;;;;5023459;28;20218;-51
2023/09/02 06:55:08;;;;;;;16.83;14.82;;;18.60;99.90;;;;;;5025032;28;20042;-46
2023/09/02 06:57:34;;;;;;;19.95;15.30;;;18.80;99.90;;;;;;5022616;28;20049;-52
2023/09/02 07:00:00;;;;;;;17.02;15.23;;;19.10;99.90;;;;;;5032244;28;20045;-49
2023/09/02 07:02:25;;;;;;;21.15;14.75;;;19.30;99.90;;;;;;5031210;28;20041;-49
2023/09/02 07:04:51;;;;;;;16.48;14.00;;;19.50;99.90;;;;;;5023376;28;20053;-47
2023/09/02 07:07:17;;;;;;;16.88;14.90;;;19.70;99.90;;;;;;5025658;28;20471;-48
2023/09/02 07:09:42;;;;;;;17.85;14.30;;;19.70;99.90;;;;;;5043243;28;20448;-47
2023/09/02 07:12:08;;;;;;;16.30;13.95;;;19.80;99.90;;;;;;5037556;28;20505;-47
2023/09/02 07:14:33;;;;;;;19.98;15.10;;;19.90;99.90;;;;;;5012435;28;20392;-50
2023/09/02 07:16:59;;;;;;;17.90;14.80;;;19.90;99.90;;;;;;5035746;28;20037;-52
2023/09/02 07:19:25;;;;;;;19.10;15.27;;;20.10;99.90;;;;;;5034617;28;20059;-48
2023/09/02 07:21:51;;;;;;;16.30;14.60;;;20.20;99.90;;;;;;5033731;28;20041;-48
2023/09/02 07:24:17;;;;;;;21.17;15.52;;;20.30;99.90;;;;;;5046469;28;20036;-49
2023/09/02 07:26:42;;;;;;;19.40;14.98;;;20.30;99.90;;;;;;5041822;28;20044;-50
2023/09/02 07:29:08;;;;;;;20.42;15.77;;;20.50;99.90;;;;;;5042607;28;20091;-48
2023/09/02 07:31:34;;;;;;;16.52;14.82;;;20.60;99.90;;;;;;5047877;28;20698;-50
2023/09/02 07:33:59;;;;;;;17.75;15.40;;;20.70;99.90;;;;;;5046011;28;20508;-48
2023/09/02 07:36:25;;;;;;;17.45;14.85;;;20.80;99.90;;;;;;5047449;28;20599;-48
2023/09/02 07:38:51;;;;;;;19.10;14.55;;;20.90;99.90;;;;;;5047555;28;20095;-50
2023/09/02 07:41:16;;;;;;;17.75;14.65;;;21.00;99.90;;;;;;5046392;28;20487;-47
2023/09/02 07:43:42;;;;;;;19.73;15.20;;;20.90;99.90;;;;;;5046782;28;20033;-49
2023/09/02 07:46:10;;;;;;;21.65;15.45;;;20.80;99.90;;;;;;5047210;28;20045;-50
2023/09/02 07:48:36;;;;;;;19.45;14.60;;;20.90;99.90;;;;;;5046446;28;20059;-50
2023/09/02 07:51:01;;;;;;;17.80;14.63;;;21.10;99.90;;;;;;5028236;28;20045;-49
2023/09/02 07:53:28;;;;;;;14.85;13.35;;;21.20;99.90;;;;;;5029093;28;20112;-48
2023/09/02 07:55:54;;;;;;;16.45;14.30;;;21.40;99.90;;;;;;5041805;28;20033;-49
2023/09/02 07:58:19;;;;;;;20.80;15.55;;;21.60;99.90;;;;;;5036072;28;20045;-50
2023/09/02 08:00:45;;;;;;;18.73;14.85;;;21.70;99.90;;;;;;5026106;28;20048;-51
2023/09/02 08:03:11;;;;;;;20.50;15.73;;;21.70;99.90;;;;;;5033768;28;20053;-50
2023/09/02 08:05:41;;;;;;;20.17;15.40;;;21.70;99.90;;;;;;5036387;28;20037;-49
2023/09/02 08:08:07;;;;;;;17.73;14.57;;;21.70;99.90;;;;;;5044846;28;20095;-47
2023/09/02 08:10:34;;;;;;;21.08;14.45;;;21.90;99.90;;;;;;5027671;28;20037;-51
2023/09/02 08:13:00;;;;;;;20.92;15.35;;;21.90;99.90;;;;;;5030321;28;20053;-51
2023/09/02 08:15:25;;;;;;;16.98;14.98;;;22.00;99.90;;;;;;5025234;28;20038;-47
2023/09/02 08:17:51;;;;;;;19.45;15.50;;;22.20;99.90;;;;;;5036454;28;20080;-50
2023/09/02 08:20:17;;;;;;;18.23;14.45;;;22.20;99.90;;;;;;5038114;28;20051;-49
2023/09/02 08:22:43;;;;;;;20.67;13.63;;;22.20;99.90;;;;;;5026793;28;20049;-60
2023/09/02 08:25:10;;;;;;;19.05;14.43;;;22.30;99.90;;;;;;5032866;28;20045;-48
2023/09/02 08:27:35;;;;;;;17.75;14.60;;;22.50;99.90;;;;;;5016247;28;20045;-50
2023/09/02 08:30:02;;;;;;;19.27;14.95;;;22.20;99.90;;;;;;5041807;28;20115;-49
2023/09/02 08:32:31;;;;;;;16.40;14.45;;;21.80;99.90;;;;;;5045260;28;20056;-49
2023/09/02 08:34:57;;;;;;;18.50;14.88;;;21.30;99.90;;;;;;5046504;28;20399;-51
2023/09/02 08:37:23;;;;;;;18.67;14.82;;;20.90;99.90;;;;;;5027811;28;20045;-51
2023/09/02 08:39:50;;;;;;;16.90;13.77;;;20.60;99.90;;;;;;5008865;28;20045;-52
2023/09/02 08:42:19;;;;;;;17.42;13.93;;;20.40;99.90;;;;;;5032479;28;20123;-51
2023/09/02 08:44:47;;;;;;;16.73;13.38;;;20.10;99.90;;;;;;5045012;28;20045;-54
2023/09/02 08:47:16;;;;;;;16.98;13.35;;;19.90;99.90;;;;;;5044683;28;20052;-52
2023/09/02 08:49:41;;;;;;;19.08;14.15;;;19.90;99.90;;;;;;5043878;28;20080;-49
2023/09/02 08:52:08;;;;;;;16.92;13.27;;;19.90;99.90;;;;;;5044571;28;20072;-48
2023/09/02 08:54:34;;;;;;;15.40;12.65;;;20.00;99.90;;;;;;5044337;28;20041;-51
2023/09/02 08:57:01;;;;;;;16.15;13.30;;;20.50;99.90;;;;;;5035400;28;20399;-53
2023/09/02 08:59:29;;;;;;;16.23;11.90;;;21.00;99.90;;;;;;5025488;28;20519;-51
2023/09/02 09:01:56;;;;;;;15.95;12.25;;;21.60;99.90;;;;;;5024929;28;20148;-50
2023/09/02 09:04:22;;;;;;;15.45;12.18;;;21.90;99.90;;;;;;5025648;28;20034;-50
2023/09/02 09:06:49;;;;;;;17.92;12.07;;;22.20;99.90;;;;;;5025248;28;20056;-50
2023/09/02 09:09:17;;;;;;;16.92;12.27;;;22.30;99.90;;;;;;5025970;28;20405;-50
2023/09/02 09:11:44;;;;;;;15.48;11.60;;;22.50;99.90;;;;;;5025903;28;20052;-55
2023/09/02 09:14:22;;;;;;;17.98;12.63;;;22.80;99.90;;;;;;5023396;28;20045;-49
2023/09/02 09:16:51;;;;;;;17.88;12.40;;;23.00;99.90;;;;;;5023940;28;20046;-53
2023/09/02 09:19:18;;;;;;;16.20;11.40;;;23.20;99.90;;;;;;5023608;28;20045;-51
2023/09/02 09:21:44;;;;;;;15.85;11.73;;;23.30;99.90;;;;;;5025267;28;20099;-50
2023/09/02 09:24:12;;;;;;;15.77;12.30;;;23.50;99.90;;;;;;5025037;28;20257;-46
2023/09/02 09:26:38;;;;;;;18.48;12.75;;;23.50;99.60;;;;;;5024799;28;20124;-51
2023/09/02 09:29:11;;;;;;;16.48;13.07;;;23.40;99.00;;;;;;5023839;28;20112;-49
2023/09/02 09:31:37;;;;;;;15.45;12.50;;;23.00;99.00;;;;;;5024349;28;20045;-54
2023/09/02 09:34:03;;;;;;;16.15;11.95;;;22.60;99.90;;;;;;5022770;28;20043;-52
2023/09/02 09:36:31;;;;;;;18.73;14.23;;;22.40;99.90;;;;;;5024194;28;20582;-49
2023/09/02 09:38:59;;;;;;;17.85;13.57;;;22.40;99.90;;;;;;5024294;28;20435;-50
2023/09/02 09:41:25;;;;;;;18.20;13.80;;;22.50;99.40;;;;;;5006416;28;20049;-50
2023/09/02 09:44:10;;;;;;;17.23;13.52;;;22.40;99.50;;;;;;5024266;28;20060;-50
2023/09/02 09:46:55;;;;;;;17.55;12.98;;;22.30;99.90;;;;;;5024796;28;20053;-51
2023/09/02 09:49:28;;;;;;;15.85;12.40;;;22.50;99.90;;;;;;5024258;28;20088;-48
2023/09/02 09:51:59;;;;;;;17.52;13.30;;;22.50;99.90;;;;;;5024712;28;20052;-51
2023/09/02 09:54:39;;;;;;;17.83;13.85;;;22.40;99.90;;;;;;5023722;28;20051;-52
2023/09/02 09:57:06;;;;;;;17.17;12.30;;;22.30;99.90;;;;;;5033265;28;20096;-49
2023/09/02 09:59:34;;;;;;;15.57;11.65;;;22.30;99.90;;;;;;5044610;28;20053;-49
2023/09/02 10:02:00;;;;;;;17.83;12.82;;;22.40;99.90;;;;;;5043394;28;20045;-50
2023/09/02 10:04:28;;;;;;;17.73;12.52;;;22.70;99.90;;;;;;5044431;28;20091;-52
2023/09/02 10:07:01;;;;;;;15.40;11.05;;;23.00;99.90;;;;;;5044326;28;20053;-53
2023/09/02 10:09:45;;;;;;;16.77;12.57;;;23.20;99.90;;;;;;5043909;28;20103;-54
2023/09/02 10:12:12;;;;;;;16.08;11.88;;;23.60;99.90;;;;;;5044519;28;20095;-54
2023/09/02 10:14:45;;;;;;;15.70;11.52;;;24.10;99.60;;;;;;5043571;28;20495;-52
2023/09/02 10:17:11;;;;;;;14.80;11.27;;;24.40;98.90;;;;;;5043374;28;20053;-49
2023/09/02 10:19:37;;;;;;;17.48;11.18;;;24.60;98.80;;;;;;5044424;28;20052;-55
2023/09/02 10:22:04;;;;;;;17.80;12.07;;;24.80;98.50;;;;;;5044026;28;20076;-52
2023/09/02 10:24:40;;;;;;;14.77;11.82;;;24.80;98.00;;;;;;5044349;28;20128;-53
2023/09/02 10:27:14;;;;;;;15.45;10.10;;;24.80;98.10;;;;;;5044109;28;20049;-55
2023/09/02 10:29:43;;;;;;;15.90;11.10;;;24.50;98.00;;;;;;5042036;28;20127;-53
2023/09/02 10:32:12;;;;;;;17.27;11.65;;;24.50;98.10;;;;;;5042612;28;20049;-52
2023/09/02 10:35:09;;;;;;;14.27;10.52;;;24.30;98.20;;;;;;5042986;28;20073;-54
2023/09/02 10:37:45;;;;;;;15.95;11.45;;;24.20;97.90;;;;;;5043885;28;20049;-51
2023/09/02 10:40:19;;;;;;;13.43;9.52;;;24.10;98.20;;;;;;5043365;28;20048;-56
2023/09/02 10:42:46;;;;;;;15.00;9.80;;;24.40;98.70;;;;;;5026536;28;20175;-54
2023/09/02 10:45:13;;;;;;;14.70;10.45;;;24.50;98.30;;;;;;5043753;28;20097;-50
2023/09/02 10:47:39;;;;;;;14.68;10.65;;;24.80;98.30;;;;;;5042039;28;20066;-54
2023/09/02 10:50:08;;;;;;;11.80;9.48;;;25.10;97.80;;;;;;5043662;28;20060;-54
2023/09/02 10:52:34;;;;;;;12.85;8.93;;;25.30;97.30;;;;;;5043399;28;20052;-55
2023/09/02 10:55:04;;;;;;;9.88;8.32;;;25.60;97.30;;;;;;5023211;28;20057;-55
2023/09/02 10:57:31;;;;;;;15.57;9.00;;;25.70;96.60;;;;;;5019376;28;20053;-53
2023/09/02 11:00:19;;;;;;;13.77;9.80;;;25.80;96.40;;;;;;5044084;28;20073;-54
2023/09/02 11:02:46;;;;;;;15.90;9.82;;;25.90;95.60;;;;;;5039858;28;20052;-55
2023/09/02 11:05:13;;;;;;;12.70;8.52;;;25.90;95.80;;;;;;5043420;28;20060;-55
2023/09/02 11:07:40;;;;;;;17.42;9.48;;;26.00;95.60;;;;;;5025219;28;20132;-55
2023/09/02 11:10:10;;;;;;;10.88;7.40;;;25.90;95.70;;;;;;5043067;28;20045;-56
2023/09/02 11:12:58;;;;;;;11.52;8.40;;;26.10;95.90;;;;;;5043556;28;20051;-55
2023/09/02 11:15:24;;;;;;;11.20;7.47;;;26.30;93.50;;;;;;5042455;28;20080;-52
2023/09/02 11:17:50;;;;;;;12.32;8.52;;;26.10;95.00;;;;;;5042985;28;20087;-55
2023/09/02 11:20:19;;;;;;;9.75;6.82;;;25.90;94.60;;;;;;5043022;28;20467;-55
2023/09/02 11:22:51;;;;;;;9.23;6.70;;;25.80;94.70;;;;;;5042739;28;20076;-49
2023/09/02 11:25:37;;;;;;;12.05;7.85;;;25.80;94.80;;;;;;5043444;28;20052;-52
2023/09/02 11:28:24;;;;;;;8.77;6.63;;;25.90;94.30;;;;;;5043685;28;20055;-52
2023/09/02 11:31:02;;;;;;;12.50;7.80;;;26.10;95.30;;;;;;5043860;28;20045;-51
2023/09/02 11:33:27;;;;;;;11.70;7.18;;;26.30;95.00;;;;;;5024596;28;20366;-53
2023/09/02 11:36:02;;;;;;;10.38;7.45;;;26.50;95.70;;;;;;5042896;28;20488;-55
2023/09/02 11:38:27;;;;;;;11.23;7.60;;;26.60;95.50;;;;;;5025241;28;20053;-53
2023/09/02 11:40:53;;;;;;;10.75;7.28;;;26.60;95.20;;;;;;5042514;28;20041;-53
2023/09/02 11:43:19;;;;;;;11.02;6.88;;;26.60;95.10;;;;;;5043218;28;20076;-55
2023/09/02 11:45:45;;;;;;;9.93;7.68;;;26.80;95.20;;;;;;5043151;28;20387;-55
2023/09/02 11:48:11;;;;;;;12.02;7.75;;;26.90;94.80;;;;;;5042598;28;20041;-55
2023/09/02 11:50:38;;;;;;;9.93;7.95;;;26.70;94.60;;;;;;5024433;28;20052;-54
2023/09/02 11:53:05;;;;;;;9.98;6.80;;;26.50;94.60;;;;;;5042620;28;20095;-51
2023/09/02 11:55:30;;;;;;;11.40;7.00;;;26.50;94.90;;;;;;5039775;28;20048;-51
2023/09/02 11:57:56;;;;;;;8.60;6.68;;;26.40;95.00;;;;;;5033724;28;20041;-53
2023/09/02 12:00:24;;;;;;;9.73;6.50;;;26.40;94.90;;;;;;5035086;28;20034;-53
2023/09/02 12:02:53;;;;;;;11.18;7.28;;;26.60;95.00;;;;;;5040067;28;20044;-53
2023/09/02 12:05:18;;;;;;;10.10;7.68;;;26.60;94.60;;;;;;5028855;28;20036;-53
2023/09/02 12:07:46;;;;;;;9.20;6.50;;;26.40;94.40;;;;;;5045391;28;20059;-54
2023/09/02 12:10:13;;;;;;;7.80;6.22;;;26.40;94.70;;;;;;5046705;28;20053;-54
2023/09/02 12:12:46;;;;;;;8.80;6.20;;;26.40;94.90;;;;;;5028849;28;20049;-55
2023/09/02 12:15:16;;;;;;;9.23;6.35;;;26.40;94.60;;;;;;5045942;28;20059;-51
2023/09/02 12:17:43;;;;;;;9.45;5.70;;;26.40;94.50;;;;;;5045795;28;20071;-52
2023/09/02 12:20:11;;;;;;;9.35;5.40;;;26.40;94.90;;;;;;5046674;28;20082;-52
2023/09/02 12:22:38;;;;;;;7.28;5.20;;;26.40;94.60;;;;;;5045773;28;20494;-53
2023/09/02 12:25:17;;;;;;;9.10;6.45;;;26.40;94.60;;;;;;5046571;28;20045;-53
2023/09/02 12:27:44;;;;;;;12.15;6.32;;;26.30;93.50;;;;;;5045941;28;20052;-53
2023/09/02 12:30:11;;;;;;;11.73;5.97;;;26.30;94.40;;;;;;5046280;28;20041;-56
2023/09/02 12:32:36;;;;;;;10.30;5.72;;;26.10;94.20;;;;;;5045722;28;20048;-54
2023/09/02 12:35:10;;;;;;;8.23;5.30;;;26.00;94.40;;;;;;5045926;28;20052;-55